ANACAPA ISLAND CA US current weather conditions

sailwx.info

Wind from 307 at 9 knots gusting 16

Air temperature 22.2° C
Dewpoint 18.6° C

Last reported at 2016-Jul-25 23:23 UTC.
Time now 2016-Jul-26 00:43 UTC

Location: N 34°01' W 119°22'.
View on Google Maps.

See reports from other nearby stations

  
Tides and Currents Weather Stations Pressure Air Temp Water Temp Dewpoint Dewpoint Depression Visibility Wind Speed Wind Dir Waves Ship Positions
date/time (UTC)wind fromknots sea level pressurealtimeterstation pressurevisibilityair tempwater tempwave heightnotes
2016-Jul-25 23:23 307 9 gusting 16 22.2
2016-Jul-25 22:23 309 8 gusting 13 23.9
2016-Jul-25 21:23 237 6 gusting 8 23.9
2016-Jul-25 20:23 249 4 gusting 9 24.4
2016-Jul-25 19:23 212 3 gusting 6 23.9
2016-Jul-25 18:23 198 2 gusting 4 23.3
2016-Jul-25 17:23 23.3
2016-Jul-25 16:23 048 3 gusting 5 21.1
2016-Jul-25 15:23 035 3 gusting 5 20.0
2016-Jul-25 14:23 014 3 gusting 5 18.9
2016-Jul-25 13:23 333 2 gusting 4 18.3
2016-Jul-25 12:23 011 2 gusting 5 18.3
2016-Jul-25 11:23 357 2 gusting 4 18.3
2016-Jul-25 10:23 002 1 gusting 2 17.8
2016-Jul-25 09:23 332 0 gusting 4 17.8
2016-Jul-25 08:23 347 3 gusting 6 17.2
2016-Jul-25 07:23 335 4 gusting 6 17.8
2016-Jul-25 06:23 326 4 gusting 7 17.8
2016-Jul-25 05:23 333 5 gusting 11 18.3
2016-Jul-25 04:23 333 7 gusting 11 18.3
2016-Jul-25 03:23 308 7 gusting 12 18.3
2016-Jul-25 02:23 308 7 gusting 11 18.9
2016-Jul-25 01:23 307 5 gusting 7 21.7
2016-Jul-25 00:23 235 2 gusting 6 23.3
2016-Jul-24 23:23 306 2 gusting 6 24.4
2016-Jul-24 22:23 026 2 gusting 8 25.0
2016-Jul-24 21:23 004 2 gusting 9 25.0
2016-Jul-24 20:23 019 2 gusting 7 24.4
2016-Jul-24 19:23 004 3 gusting 9 22.8
2016-Jul-24 18:23 054 3 gusting 7 22.2
2016-Jul-24 17:23 109 1 gusting 5 22.8
2016-Jul-24 16:23 044 2 gusting 6 20.6
2016-Jul-24 15:23 086 3 gusting 6 20.0
2016-Jul-24 14:23 062 4 gusting 6 20.0
2016-Jul-24 13:23 050 2 gusting 6 20.0
2016-Jul-24 12:23 062 2 gusting 7 19.4
2016-Jul-24 11:23 095 2 gusting 6 19.4
2016-Jul-24 10:23 335 0 gusting 2 18.9
2016-Jul-24 09:23 19.4
2016-Jul-24 08:23 096 0 gusting 5 20.0
2016-Jul-24 07:23 098 3 gusting 6 20.0
2016-Jul-24 06:23 107 2 gusting 6 20.0
2016-Jul-24 05:23 095 5 gusting 7 20.6
2016-Jul-24 04:23 063 2 gusting 6 20.0
2016-Jul-24 03:23 066 2 gusting 5 20.0
2016-Jul-24 02:23 308 0 gusting 3 22.2
2016-Jul-24 01:23 016 0 gusting 4 22.8
2016-Jul-24 00:23 348 0 gusting 7 23.9